(°C)
15°
16°
18°
19°
21°
22°
23°
(°C)
15°
16°
18°
19°
21°
22°
22°
ЗСЗ
СЗ
СЗ
ССЗ
ССЗ
С
ССЗ
(км/ч)
3-6
2-6
2-7
3-8
4-12
5-16
5-19
(мм)
0
0
0
0
0
0
0
(%)
55
29
16
4
3
3
3

Высота солнцестояния

/ 50°
sun-icon
UV 5
05:10
20:37
Полнолуние (190°)
21:37
05:17

METAR для 43.36°С 77.05°В (UAAA)

Время Условия Температура/
Точка росы
Ветер Видимость Погода Облачность Давление Изменить Необработанный
VFR 14°C / 9°C 170º variable 140º to 200º 4kt >10km - Scattered Clouds 3600ft 1015 Temporary: Thunderstorm . . Runway 05R: Wet or puddles, with 1mm, friction coefficient 0.50. UAAA 250330Z 17002MPS 140V200 9999 SCT036CB OVC100 14/09 Q1015 R05R/2/0150 TEMPO TS
VFR 14°C / 9°C variable 2kt >10km Light Showers Rain 3.00mm precipitation Vertical Visibility of 0ft. 1014 Temporary: Thunderstorm . . Runway 05R: Wet or puddles, with 1mm, friction coefficient 0.50. UAAA 250300Z VRB01MPS 9999 -SHRA SCT036CB BKN100 14/09 Q1014 R05R/2/0150 TEMPO TS
VFR 15°C / 9°C 60º variable 020º to 080º 4kt >10km - Scattered Clouds 3600ft 1014 No Significant change. Runway 05R: Wet or puddles, with 1mm, friction coefficient 0.50. UAAA 250230Z 06002MPS 020V080 9999 SCT036CB BKN100 15/09 Q1014 R05R/2/0150 NOSIG
VFR 14°C / 9°C 90º variable 060º to 120º 4kt >10km - Scattered Clouds 3300ft 1014 No Significant change. Runway 05R: Wet or puddles, with 1mm, friction coefficient 0.50. UAAA 250200Z 09002MPS 060V120 9999 SCT033CB BKN100 14/09 Q1014 R05R/2/0150 NOSIG
VFR 14°C / 9°C 70º variable 040º to 110º 4kt >10km - Scattered Clouds 5000ft 1014 No Significant change. Runway 05R: Wet or puddles, with 1mm, friction coefficient 0.50. UAAA 250130Z 07002MPS 040V110 9999 SCT050CB BKN100 14/09 Q1014 R05R/2/0150 NOSIG
VFR 13°C / 11°C 40º 4kt >10km - Scattered Clouds 5000ft 1014 Temporary: Thunderstorm . . Runway 05R: Wet or puddles, with 1mm, friction coefficient 0.50. UAAA 250100Z 04002MPS 9999 SCT050CB BKN100 13/11 Q1014 R05R/2/0150 TEMPO TS
VFR 13°C / 11°C 220º variable 180º to 260º 4kt >10km - Broken Clouds 3600ft 1015 No Significant change. Runway 05R: Wet or puddles, with 1mm, friction coefficient 0.50. UAAA 250030Z 22002MPS 180V260 9999 BKN036CB OVC100 13/11 Q1015 R05R/2/0150 NOSIG
VFR 13°C / 11°C 150º variable 120º to 190º 4kt >10km - Broken Clouds 3300ft 1014 No Significant change. Runway 05R: Wet or puddles, with 1mm, friction coefficient 0.50. UAAA 250000Z 15002MPS 120V190 9999 BKN033CB OVC100 13/11 Q1014 R05R/2/0150 NOSIG
VFR 13°C / 11°C 80º variable 050º to 120º 4kt >10km - Broken Clouds 3300ft 1014 Temporary: Thunderstorm . . Runway 05R: Wet or puddles, with 1mm, friction coefficient 0.50. UAAA 242330Z 08002MPS 050V120 9999 BKN033CB OVC100 13/11 Q1014 R05R/2/0150 TEMPO TS
VFR 13°C / 12°C 40º 6kt >10km - Broken Clouds 3300ft 1014 Temporary: Thunderstorm . . Runway 05R: Wet or puddles, with 1mm, friction coefficient 0.50. UAAA 242300Z 04003MPS 9999 BKN033CB OVC100 13/12 Q1014 R05R/2/0150 TEMPO TS
MVFR 13°C / 12°C 50º 6kt >10km Light Showers Rain 3.00mm precipitation Vertical Visibility of 0ft. 1013 Temporary: Thunderstorm . . Runway 05R: Wet or puddles, with 1mm, friction coefficient 0.50. UAAA 242230Z 05003MPS 9999 -SHRA BKN030CB OVC100 13/12 Q1013 R05R/2/0150 TEMPO TS
MVFR 13°C / 12°C 360º 8kt >10km Light Showers Rain 3.00mm precipitation Vertical Visibility of 0ft. 1014 Temporary: Thunderstorm . . Runway 05R: Wet or puddles, with 1mm, friction coefficient 0.50. UAAA 242200Z 36004MPS 9999 -SHRA BKN029CB OVC100 13/12 Q1014 R05R/2/0150 TEMPO TS
MVFR 13°C / 12°C 40º variable 010º to 080º 6kt >10km Light Showers Rain 3.00mm precipitation Vertical Visibility of 0ft. 1014 Temporary: Thunderstorm . . Runway 05R: Wet or puddles, with 1mm, friction coefficient 0.50. UAAA 242130Z 04003MPS 010V080 9999 -SHRA BKN026CB OVC100 13/12 Q1014 R05R/2/0150 TEMPO TS
MVFR 13°C / 11°C 120º variable 070º to 190º 6kt >10km Light Showers Rain 3.00mm precipitation Vertical Visibility of 0ft. 1013 Temporary: Thunderstorm . . Runway 05R: Wet or puddles, with 1mm, friction coefficient 0.50. UAAA 242100Z 12003MPS 070V190 9999 -SHRA BKN027CB OVC100 13/11 Q1013 R05R/2/0150 TEMPO TS
IFR 14°C / 12°C 110º 12kt 4700m Light Showers Rain in the Vicinity Thunderstorm 3.00mm precipitation Vertical Visibility of 0ft. 1012 Temporary: Thunderstorm . . Runway 05R: Wet or puddles, with 1mm, friction coefficient 0.50. UAAA 242052Z 11006MPS 4700 -SHRA VCTS BKN033CB OVC100 14/12 Q1012 R05R/2/0150 TEMPO TS
VFR 14°C / 12°C 310º variable 280º to 060º 4kt >10km in the Vicinity Thunderstorm Vertical Visibility of 0ft. 1015 No Significant change. Runway 05R: Damp, , friction coefficient 0.60. UAAA 242043Z 31002MPS 280V060 9999 VCTS BKN033CB OVC100 14/12 Q1015 R05R/1///60 NOSIG
MVFR 14°C / 11°C 70º variable 030º to 100º 4kt >10km - Scattered Clouds 1000ft 1013 No Significant change. Runway 05R: Damp, , friction coefficient 0.60. UAAA 242030Z 07002MPS 030V100 9999 SCT010 BKN025CB OVC100 14/11 Q1013 R05R/1///60 NOSIG
MVFR 14°C / 12°C 50º variable 340º to 110º 6kt >10km - Scattered Clouds 1000ft 1013 No Significant change. Runway 05R: Wet or puddles, with 2mm, friction coefficient 0.50. UAAA 242000Z 05003MPS 340V110 9999 SCT010 BKN023CB OVC100 14/12 Q1013 R05R/2/0250 NOSIG
VFR 14°C / 12°C 70º variable 040º to 100º 6kt >10km - Scattered Clouds 1900ft 1013 No Significant change. Runway 05R: Wet or puddles, with 2mm, friction coefficient 0.50. UAAA 241930Z 07003MPS 040V100 9999 SCT019CB BKN100 14/12 Q1013 R05R/2/0250 NOSIG
VFR 14°C / 13°C 340º 14kt >10km - Scattered Clouds 5000ft 1012 No Significant change. Runway 05R: Wet or puddles, with 2mm, friction coefficient 0.50. UAAA 241900Z 34007MPS 9999 SCT050CB BKN100 14/13 Q1012 R05R/2/0250 NOSIG
VFR 15°C / 13°C 340º 12kt >10km - Scattered Clouds 5000ft 1011 No Significant change. Runway 05R: Wet or puddles, with 2mm, friction coefficient 0.50. UAAA 241836Z 34006MPS 9999 SCT050CB BKN100 15/13 Q1011 R05R/2/0250 NOSIG
VFR 15°C / 13°C 100º 8kt >10km Light Showers Rain 3.00mm precipitation Vertical Visibility of 0ft. 1012 Temporary: 34006G15MPS Thunderstorm Rain . . Runway 05R: Wet or puddles, with 2mm, friction coefficient 0.50. UAAA 241800Z 10004MPS 9999 -SHRA BKN050CB OVC100 15/13 Q1012 R05R/2/0250 TEMPO 34006G15MPS TSRA
VFR 15°C / 13°C 80º variable 040º to 110º 6kt >10km Light Showers Rain 3.00mm precipitation Vertical Visibility of 0ft. 1013 Temporary: 34006G15MPS Thunderstorm Rain . . Runway 05R: Wet or puddles, with 2mm, friction coefficient 0.50. UAAA 241744Z 08003MPS 040V110 9999 -SHRA BKN033CB OVC100 15/13 Q1013 R05R/2/0250 TEMPO 34006G15MPS TSRA
IFR 17°C / 12°C 340º 12kt 4800m Light Showers Rain 3.00mm precipitation Vertical Visibility of 0ft. 1015 Temporary: 34006G15MPS Thunderstorm Rain . . Runway 05R: Wet or puddles, with 1mm, friction coefficient 0.50. UAAA 241730Z 34006MPS 4800 -SHRA BKN033CB OVC100 17/12 Q1015 R05R/2/0150 TEMPO 34006G15MPS TSRA

VFR

14°C / 9°C

[Больше]
Ветер 170º variable 140º to 200º 4kt
Видимость >10km
Погода -
Облачность Scattered Clouds 3600ft
Давление 1015
Изменить Temporary: Thunderstorm . . Runway 05R: Wet or puddles, with 1mm, friction coefficient 0.50.
Необработанный UAAA 250330Z 17002MPS 140V200 9999 SCT036CB OVC100 14/09 Q1015 R05R/2/0150 TEMPO TS

VFR

14°C / 9°C

[Больше]
Ветер variable 2kt
Видимость >10km
Погода Light Showers Rain 3.00mm precipitation
Облачность Vertical Visibility of 0ft.
Давление 1014
Изменить Temporary: Thunderstorm . . Runway 05R: Wet or puddles, with 1mm, friction coefficient 0.50.
Необработанный UAAA 250300Z VRB01MPS 9999 -SHRA SCT036CB BKN100 14/09 Q1014 R05R/2/0150 TEMPO TS

VFR

15°C / 9°C

[Больше]
Ветер 60º variable 020º to 080º 4kt
Видимость >10km
Погода -
Облачность Scattered Clouds 3600ft
Давление 1014
Изменить No Significant change. Runway 05R: Wet or puddles, with 1mm, friction coefficient 0.50.
Необработанный UAAA 250230Z 06002MPS 020V080 9999 SCT036CB BKN100 15/09 Q1014 R05R/2/0150 NOSIG

VFR

14°C / 9°C

[Больше]
Ветер 90º variable 060º to 120º 4kt
Видимость >10km
Погода -
Облачность Scattered Clouds 3300ft
Давление 1014
Изменить No Significant change. Runway 05R: Wet or puddles, with 1mm, friction coefficient 0.50.
Необработанный UAAA 250200Z 09002MPS 060V120 9999 SCT033CB BKN100 14/09 Q1014 R05R/2/0150 NOSIG

VFR

14°C / 9°C

[Больше]
Ветер 70º variable 040º to 110º 4kt
Видимость >10km
Погода -
Облачность Scattered Clouds 5000ft
Давление 1014
Изменить No Significant change. Runway 05R: Wet or puddles, with 1mm, friction coefficient 0.50.
Необработанный UAAA 250130Z 07002MPS 040V110 9999 SCT050CB BKN100 14/09 Q1014 R05R/2/0150 NOSIG

VFR

13°C / 11°C

[Больше]
Ветер 40º 4kt
Видимость >10km
Погода -
Облачность Scattered Clouds 5000ft
Давление 1014
Изменить Temporary: Thunderstorm . . Runway 05R: Wet or puddles, with 1mm, friction coefficient 0.50.
Необработанный UAAA 250100Z 04002MPS 9999 SCT050CB BKN100 13/11 Q1014 R05R/2/0150 TEMPO TS

VFR

13°C / 11°C

[Больше]
Ветер 220º variable 180º to 260º 4kt
Видимость >10km
Погода -
Облачность Broken Clouds 3600ft
Давление 1015
Изменить No Significant change. Runway 05R: Wet or puddles, with 1mm, friction coefficient 0.50.
Необработанный UAAA 250030Z 22002MPS 180V260 9999 BKN036CB OVC100 13/11 Q1015 R05R/2/0150 NOSIG

VFR

13°C / 11°C

[Больше]
Ветер 150º variable 120º to 190º 4kt
Видимость >10km
Погода -
Облачность Broken Clouds 3300ft
Давление 1014
Изменить No Significant change. Runway 05R: Wet or puddles, with 1mm, friction coefficient 0.50.
Необработанный UAAA 250000Z 15002MPS 120V190 9999 BKN033CB OVC100 13/11 Q1014 R05R/2/0150 NOSIG

VFR

13°C / 11°C

[Больше]
Ветер 80º variable 050º to 120º 4kt
Видимость >10km
Погода -
Облачность Broken Clouds 3300ft
Давление 1014
Изменить Temporary: Thunderstorm . . Runway 05R: Wet or puddles, with 1mm, friction coefficient 0.50.
Необработанный UAAA 242330Z 08002MPS 050V120 9999 BKN033CB OVC100 13/11 Q1014 R05R/2/0150 TEMPO TS

VFR

13°C / 12°C

[Больше]
Ветер 40º 6kt
Видимость >10km
Погода -
Облачность Broken Clouds 3300ft
Давление 1014
Изменить Temporary: Thunderstorm . . Runway 05R: Wet or puddles, with 1mm, friction coefficient 0.50.
Необработанный UAAA 242300Z 04003MPS 9999 BKN033CB OVC100 13/12 Q1014 R05R/2/0150 TEMPO TS

MVFR

13°C / 12°C

[Больше]
Ветер 50º 6kt
Видимость >10km
Погода Light Showers Rain 3.00mm precipitation
Облачность Vertical Visibility of 0ft.
Давление 1013
Изменить Temporary: Thunderstorm . . Runway 05R: Wet or puddles, with 1mm, friction coefficient 0.50.
Необработанный UAAA 242230Z 05003MPS 9999 -SHRA BKN030CB OVC100 13/12 Q1013 R05R/2/0150 TEMPO TS

MVFR

13°C / 12°C

[Больше]
Ветер 360º 8kt
Видимость >10km
Погода Light Showers Rain 3.00mm precipitation
Облачность Vertical Visibility of 0ft.
Давление 1014
Изменить Temporary: Thunderstorm . . Runway 05R: Wet or puddles, with 1mm, friction coefficient 0.50.
Необработанный UAAA 242200Z 36004MPS 9999 -SHRA BKN029CB OVC100 13/12 Q1014 R05R/2/0150 TEMPO TS

MVFR

13°C / 12°C

[Больше]
Ветер 40º variable 010º to 080º 6kt
Видимость >10km
Погода Light Showers Rain 3.00mm precipitation
Облачность Vertical Visibility of 0ft.
Давление 1014
Изменить Temporary: Thunderstorm . . Runway 05R: Wet or puddles, with 1mm, friction coefficient 0.50.
Необработанный UAAA 242130Z 04003MPS 010V080 9999 -SHRA BKN026CB OVC100 13/12 Q1014 R05R/2/0150 TEMPO TS

MVFR

13°C / 11°C

[Больше]
Ветер 120º variable 070º to 190º 6kt
Видимость >10km
Погода Light Showers Rain 3.00mm precipitation
Облачность Vertical Visibility of 0ft.
Давление 1013
Изменить Temporary: Thunderstorm . . Runway 05R: Wet or puddles, with 1mm, friction coefficient 0.50.
Необработанный UAAA 242100Z 12003MPS 070V190 9999 -SHRA BKN027CB OVC100 13/11 Q1013 R05R/2/0150 TEMPO TS

IFR

14°C / 12°C

[Больше]
Ветер 110º 12kt
Видимость 4700m
Погода Light Showers Rain in the Vicinity Thunderstorm 3.00mm precipitation
Облачность Vertical Visibility of 0ft.
Давление 1012
Изменить Temporary: Thunderstorm . . Runway 05R: Wet or puddles, with 1mm, friction coefficient 0.50.
Необработанный UAAA 242052Z 11006MPS 4700 -SHRA VCTS BKN033CB OVC100 14/12 Q1012 R05R/2/0150 TEMPO TS

VFR

14°C / 12°C

[Больше]
Ветер 310º variable 280º to 060º 4kt
Видимость >10km
Погода in the Vicinity Thunderstorm
Облачность Vertical Visibility of 0ft.
Давление 1015
Изменить No Significant change. Runway 05R: Damp, , friction coefficient 0.60.
Необработанный UAAA 242043Z 31002MPS 280V060 9999 VCTS BKN033CB OVC100 14/12 Q1015 R05R/1///60 NOSIG

MVFR

14°C / 11°C

[Больше]
Ветер 70º variable 030º to 100º 4kt
Видимость >10km
Погода -
Облачность Scattered Clouds 1000ft
Давление 1013
Изменить No Significant change. Runway 05R: Damp, , friction coefficient 0.60.
Необработанный UAAA 242030Z 07002MPS 030V100 9999 SCT010 BKN025CB OVC100 14/11 Q1013 R05R/1///60 NOSIG

MVFR

14°C / 12°C

[Больше]
Ветер 50º variable 340º to 110º 6kt
Видимость >10km
Погода -
Облачность Scattered Clouds 1000ft
Давление 1013
Изменить No Significant change. Runway 05R: Wet or puddles, with 2mm, friction coefficient 0.50.
Необработанный UAAA 242000Z 05003MPS 340V110 9999 SCT010 BKN023CB OVC100 14/12 Q1013 R05R/2/0250 NOSIG

VFR

14°C / 12°C

[Больше]
Ветер 70º variable 040º to 100º 6kt
Видимость >10km
Погода -
Облачность Scattered Clouds 1900ft
Давление 1013
Изменить No Significant change. Runway 05R: Wet or puddles, with 2mm, friction coefficient 0.50.
Необработанный UAAA 241930Z 07003MPS 040V100 9999 SCT019CB BKN100 14/12 Q1013 R05R/2/0250 NOSIG

VFR

14°C / 13°C

[Больше]
Ветер 340º 14kt
Видимость >10km
Погода -
Облачность Scattered Clouds 5000ft
Давление 1012
Изменить No Significant change. Runway 05R: Wet or puddles, with 2mm, friction coefficient 0.50.
Необработанный UAAA 241900Z 34007MPS 9999 SCT050CB BKN100 14/13 Q1012 R05R/2/0250 NOSIG

VFR

15°C / 13°C

[Больше]
Ветер 340º 12kt
Видимость >10km
Погода -
Облачность Scattered Clouds 5000ft
Давление 1011
Изменить No Significant change. Runway 05R: Wet or puddles, with 2mm, friction coefficient 0.50.
Необработанный UAAA 241836Z 34006MPS 9999 SCT050CB BKN100 15/13 Q1011 R05R/2/0250 NOSIG

VFR

15°C / 13°C

[Больше]
Ветер 100º 8kt
Видимость >10km
Погода Light Showers Rain 3.00mm precipitation
Облачность Vertical Visibility of 0ft.
Давление 1012
Изменить Temporary: 34006G15MPS Thunderstorm Rain . . Runway 05R: Wet or puddles, with 2mm, friction coefficient 0.50.
Необработанный UAAA 241800Z 10004MPS 9999 -SHRA BKN050CB OVC100 15/13 Q1012 R05R/2/0250 TEMPO 34006G15MPS TSRA

VFR

15°C / 13°C

[Больше]
Ветер 80º variable 040º to 110º 6kt
Видимость >10km
Погода Light Showers Rain 3.00mm precipitation
Облачность Vertical Visibility of 0ft.
Давление 1013
Изменить Temporary: 34006G15MPS Thunderstorm Rain . . Runway 05R: Wet or puddles, with 2mm, friction coefficient 0.50.
Необработанный UAAA 241744Z 08003MPS 040V110 9999 -SHRA BKN033CB OVC100 15/13 Q1013 R05R/2/0250 TEMPO 34006G15MPS TSRA

IFR

17°C / 12°C

[Больше]
Ветер 340º 12kt
Видимость 4800m
Погода Light Showers Rain 3.00mm precipitation
Облачность Vertical Visibility of 0ft.
Давление 1015
Изменить Temporary: 34006G15MPS Thunderstorm Rain . . Runway 05R: Wet or puddles, with 1mm, friction coefficient 0.50.
Необработанный UAAA 241730Z 34006MPS 4800 -SHRA BKN033CB OVC100 17/12 Q1015 R05R/2/0150 TEMPO 34006G15MPS TSRA

TAF для 43.36°С 77.05°В (UAAA)

From till


Maximum Temperature 24ºC on . Minimum Temperature 11ºC on .
From till Wind 40º 8kt. Visibility 10km or more. Broken Clouds 5000ft. Broken Clouds 10000ft.
Temporarly from till Wind 340º 10kt. Gust 23kt. Visibility 4000m. Light Thunderstorm Rain . Broken Clouds 1100ft. Overcast 10000ft.
Temporarly from till Wind 300º 6kt. Gust 16kt. Broken Clouds 2000ft.
Becoming from till Wind 160º 6kt. Visibility 10km or more. Broken Clouds 5000ft. Broken Clouds 10000ft.

Необработанный: TAF UAAA 242300Z 2500/2524 04004MPS 9999 BKN050CB BKN100 TX24/2509Z TN11/2501Z TEMPO 2500/2505 34005G12MPS 4000 -TSRA BKN011CB OVC100 TEMPO 2505/2512 30003G08MPS BKN020CB BECMG 2512/2514 16003MPS

Текущие спутниковые изображения и снимки дождя для 43.36°С 77.05°В

Указатель местности находится на 43.36°С 77.05°В. [Больше]

Спутниковое изображение в реальном времени сочетает в себе видимый свет в дневное время с инфракрасным излучением в ночное время. Ночью изображение получается не темным, так как инфракрасное излучение может обнаружить разницу температур. К сожалению, низкие облака и туман трудно отличить от температуры у поверхности земли и поэтому могут быть почти незаметны ночью. Спутниковые снимки Meteosat для Европы обновляются каждые 5 минут в режиме реального времени.Снимки GOES-16/GOES-17 (Северная и Южная Америка) и Химавари (Азия) обновляются каждые 10 минут.

Копирайт 2021 EUMETSAT / meteoblue. / Копирайт 2021 meteoblue

Радарный и сверхкраткосрочный прогноз осадков для 43.36°С 77.05°В

Индикатор местности находится на 43.36°С 77.05°В. Анимация показывает радар осадков за последний час, а также прогноз погоды для1h. Умеренная морось или легкий снег могут быть незаметны для радара. Интенсивность осадковмаркированна цветной кодировкой, начиная со светло-синего и заканчивая темно-пурпурным.